Terminal Aerodrome Forecast
Issued by NWS

Home | Current Version | Previous Version | Text Only | Print | Product List | Glossary On
Versions: 1 2 3 4 5 6 7 8 9 10 11 12 13 14 15 16 17 18 19 20 21 22 23 24 25 26 27 28 29 30 31 32 33
000
FTUS45 KLKN 240000 AAA
TAFEKO
TAF AMD
KEKO 240014Z 2400/2424 27015G30KT P6SM SCT100 SCT250
     FM240300 29010KT P6SM SKC
     FM240600 08002KT P6SM SKC
     FM241900 26010G20KT P6SM SCT070=

USA.gov is the U.S. government's official web portal to all federal, state and local government web resources and services.